sensor_id;sensor_type;location;lat;lon;timestamp;P1;durP1;ratioP1;P2;durP2;ratioP2
33926;SDS011;20485;50.992;5.550;2023-04-03T00:00:42;20.40;;;12.73;;
33926;SDS011;20485;50.992;5.550;2023-04-03T00:03:08;18.42;;;11.80;;
33926;SDS011;20485;50.992;5.550;2023-04-03T00:05:34;21.58;;;12.88;;
33926;SDS011;20485;50.992;5.550;2023-04-03T00:08:00;18.98;;;11.85;;
33926;SDS011;20485;50.992;5.550;2023-04-03T00:10:27;19.00;;;11.73;;
33926;SDS011;20485;50.992;5.550;2023-04-03T00:12:53;21.15;;;11.13;;
33926;SDS011;20485;50.992;5.550;2023-04-03T00:15:19;22.27;;;10.32;;
33926;SDS011;20485;50.992;5.550;2023-04-03T00:17:45;17.63;;;10.82;;
33926;SDS011;20485;50.992;5.550;2023-04-03T00:20:11;16.33;;;10.40;;
33926;SDS011;20485;50.992;5.550;2023-04-03T00:22:37;16.95;;;9.77;;
33926;SDS011;20485;50.992;5.550;2023-04-03T00:25:03;14.60;;;8.30;;
33926;SDS011;20485;50.992;5.550;2023-04-03T00:27:29;17.65;;;9.13;;
33926;SDS011;20485;50.992;5.550;2023-04-03T00:29:55;17.38;;;8.98;;
33926;SDS011;20485;50.992;5.550;2023-04-03T00:32:21;12.52;;;7.80;;
33926;SDS011;20485;50.992;5.550;2023-04-03T00:34:46;14.38;;;8.05;;
33926;SDS011;20485;50.992;5.550;2023-04-03T00:37:12;14.18;;;8.57;;
33926;SDS011;20485;50.992;5.550;2023-04-03T00:39:41;12.23;;;7.03;;
33926;SDS011;20485;50.992;5.550;2023-04-03T00:42:06;9.90;;;6.13;;
33926;SDS011;20485;50.992;5.550;2023-04-03T00:46:58;9.13;;;6.13;;
33926;SDS011;20485;50.992;5.550;2023-04-03T00:49:25;10.10;;;5.78;;
33926;SDS011;20485;50.992;5.550;2023-04-03T00:51:52;16.35;;;7.07;;
33926;SDS011;20485;50.992;5.550;2023-04-03T00:54:18;9.80;;;6.30;;
33926;SDS011;20485;50.992;5.550;2023-04-03T00:56:44;12.07;;;6.07;;
33926;SDS011;20485;50.992;5.550;2023-04-03T00:59:14;12.70;;;6.65;;
33926;SDS011;20485;50.992;5.550;2023-04-03T01:01:47;10.70;;;6.22;;
33926;SDS011;20485;50.992;5.550;2023-04-03T01:04:26;17.08;;;5.57;;
33926;SDS011;20485;50.992;5.550;2023-04-03T01:06:53;10.40;;;6.13;;
33926;SDS011;20485;50.992;5.550;2023-04-03T01:09:24;9.55;;;5.97;;
33926;SDS011;20485;50.992;5.550;2023-04-03T01:11:51;12.68;;;6.13;;
33926;SDS011;20485;50.992;5.550;2023-04-03T01:14:17;11.38;;;5.45;;
33926;SDS011;20485;50.992;5.550;2023-04-03T01:16:50;11.13;;;6.50;;
33926;SDS011;20485;50.992;5.550;2023-04-03T01:19:22;11.98;;;5.82;;
33926;SDS011;20485;50.992;5.550;2023-04-03T01:24:36;9.23;;;5.20;;
33926;SDS011;20485;50.992;5.550;2023-04-03T01:27:37;8.27;;;5.25;;
33926;SDS011;20485;50.992;5.550;2023-04-03T01:30:03;11.70;;;5.38;;
33926;SDS011;20485;50.992;5.550;2023-04-03T01:32:32;9.88;;;5.80;;
33926;SDS011;20485;50.992;5.550;2023-04-03T01:34:58;7.85;;;5.03;;
33926;SDS011;20485;50.992;5.550;2023-04-03T01:37:23;9.95;;;6.13;;
33926;SDS011;20485;50.992;5.550;2023-04-03T01:39:49;9.55;;;6.25;;
33926;SDS011;20485;50.992;5.550;2023-04-03T01:42:15;10.55;;;5.70;;
33926;SDS011;20485;50.992;5.550;2023-04-03T01:44:41;12.68;;;6.28;;
33926;SDS011;20485;50.992;5.550;2023-04-03T01:47:07;10.98;;;6.00;;
33926;SDS011;20485;50.992;5.550;2023-04-03T01:49:33;9.45;;;5.63;;
33926;SDS011;20485;50.992;5.550;2023-04-03T01:51:58;9.05;;;6.00;;
33926;SDS011;20485;50.992;5.550;2023-04-03T01:54:27;13.60;;;7.07;;
33926;SDS011;20485;50.992;5.550;2023-04-03T01:56:56;11.52;;;6.47;;
33926;SDS011;20485;50.992;5.550;2023-04-03T01:59:22;10.05;;;6.28;;
33926;SDS011;20485;50.992;5.550;2023-04-03T02:01:48;15.27;;;7.68;;
33926;SDS011;20485;50.992;5.550;2023-04-03T02:04:14;13.60;;;7.38;;
33926;SDS011;20485;50.992;5.550;2023-04-03T02:06:43;10.40;;;6.95;;
33926;SDS011;20485;50.992;5.550;2023-04-03T02:09:29;13.88;;;6.97;;
33926;SDS011;20485;50.992;5.550;2023-04-03T02:11:55;13.13;;;7.07;;
33926;SDS011;20485;50.992;5.550;2023-04-03T02:14:21;14.07;;;7.05;;
33926;SDS011;20485;50.992;5.550;2023-04-03T02:16:48;19.58;;;7.93;;
33926;SDS011;20485;50.992;5.550;2023-04-03T02:19:14;11.75;;;6.75;;
33926;SDS011;20485;50.992;5.550;2023-04-03T02:21:40;15.43;;;7.93;;
33926;SDS011;20485;50.992;5.550;2023-04-03T02:24:06;13.02;;;8.00;;
33926;SDS011;20485;50.992;5.550;2023-04-03T02:26:32;17.05;;;7.28;;
33926;SDS011;20485;50.992;5.550;2023-04-03T02:28:58;12.07;;;6.90;;
33926;SDS011;20485;50.992;5.550;2023-04-03T02:31:24;12.68;;;6.65;;
33926;SDS011;20485;50.992;5.550;2023-04-03T02:33:50;14.20;;;7.50;;
33926;SDS011;20485;50.992;5.550;2023-04-03T02:36:16;12.73;;;7.90;;
33926;SDS011;20485;50.992;5.550;2023-04-03T02:38:42;15.13;;;7.82;;
33926;SDS011;20485;50.992;5.550;2023-04-03T02:41:10;18.10;;;8.18;;
33926;SDS011;20485;50.992;5.550;2023-04-03T02:43:37;12.88;;;8.07;;
33926;SDS011;20485;50.992;5.550;2023-04-03T02:46:03;17.42;;;8.10;;
33926;SDS011;20485;50.992;5.550;2023-04-03T02:48:30;14.00;;;8.30;;
33926;SDS011;20485;50.992;5.550;2023-04-03T02:50:56;14.35;;;7.75;;
33926;SDS011;20485;50.992;5.550;2023-04-03T02:53:22;11.20;;;7.15;;
33926;SDS011;20485;50.992;5.550;2023-04-03T02:55:48;14.13;;;7.03;;
33926;SDS011;20485;50.992;5.550;2023-04-03T02:58:23;9.18;;;6.47;;
33926;SDS011;20485;50.992;5.550;2023-04-03T03:00:51;11.45;;;6.90;;
33926;SDS011;20485;50.992;5.550;2023-04-03T03:03:18;10.77;;;7.45;;
33926;SDS011;20485;50.992;5.550;2023-04-03T03:05:44;14.10;;;8.80;;
33926;SDS011;20485;50.992;5.550;2023-04-03T03:08:13;16.30;;;8.75;;
33926;SDS011;20485;50.992;5.550;2023-04-03T03:10:39;17.30;;;9.52;;
33926;SDS011;20485;50.992;5.550;2023-04-03T03:13:05;19.17;;;9.25;;
33926;SDS011;20485;50.992;5.550;2023-04-03T03:15:30;16.98;;;8.55;;
33926;SDS011;20485;50.992;5.550;2023-04-03T03:17:56;14.70;;;9.40;;
33926;SDS011;20485;50.992;5.550;2023-04-03T03:20:28;16.95;;;9.60;;
33926;SDS011;20485;50.992;5.550;2023-04-03T03:22:54;16.55;;;10.00;;
33926;SDS011;20485;50.992;5.550;2023-04-03T03:25:20;18.98;;;10.00;;
33926;SDS011;20485;50.992;5.550;2023-04-03T03:27:45;17.50;;;9.00;;
33926;SDS011;20485;50.992;5.550;2023-04-03T03:30:17;20.40;;;11.48;;
33926;SDS011;20485;50.992;5.550;2023-04-03T03:32:43;16.60;;;10.07;;
33926;SDS011;20485;50.992;5.550;2023-04-03T03:35:08;20.20;;;10.90;;
33926;SDS011;20485;50.992;5.550;2023-04-03T03:37:34;20.15;;;10.80;;
33926;SDS011;20485;50.992;5.550;2023-04-03T03:40:00;20.17;;;10.73;;
33926;SDS011;20485;50.992;5.550;2023-04-03T03:42:26;18.80;;;10.68;;
33926;SDS011;20485;50.992;5.550;2023-04-03T03:44:52;17.38;;;9.57;;
33926;SDS011;20485;50.992;5.550;2023-04-03T03:47:17;18.20;;;10.20;;
33926;SDS011;20485;50.992;5.550;2023-04-03T03:49:43;17.05;;;10.43;;
33926;SDS011;20485;50.992;5.550;2023-04-03T03:52:09;23.65;;;11.15;;
33926;SDS011;20485;50.992;5.550;2023-04-03T03:54:36;20.88;;;11.63;;
33926;SDS011;20485;50.992;5.550;2023-04-03T03:57:04;19.55;;;10.90;;
33926;SDS011;20485;50.992;5.550;2023-04-03T03:59:33;19.15;;;10.90;;
33926;SDS011;20485;50.992;5.550;2023-04-03T04:01:59;19.25;;;11.48;;
33926;SDS011;20485;50.992;5.550;2023-04-03T04:04:25;19.92;;;11.10;;
33926;SDS011;20485;50.992;5.550;2023-04-03T04:06:50;15.43;;;10.85;;
33926;SDS011;20485;50.992;5.550;2023-04-03T04:09:17;21.48;;;10.65;;
33926;SDS011;20485;50.992;5.550;2023-04-03T04:11:43;15.65;;;10.27;;
33926;SDS011;20485;50.992;5.550;2023-04-03T04:14:10;19.17;;;10.13;;
33926;SDS011;20485;50.992;5.550;2023-04-03T04:16:42;17.02;;;9.05;;
33926;SDS011;20485;50.992;5.550;2023-04-03T04:19:07;16.98;;;9.75;;
33926;SDS011;20485;50.992;5.550;2023-04-03T04:21:33;22.80;;;10.55;;
33926;SDS011;20485;50.992;5.550;2023-04-03T04:23:59;20.88;;;9.88;;
33926;SDS011;20485;50.992;5.550;2023-04-03T04:26:25;20.02;;;11.05;;
33926;SDS011;20485;50.992;5.550;2023-04-03T04:28:51;25.27;;;12.10;;
33926;SDS011;20485;50.992;5.550;2023-04-03T04:31:16;22.60;;;12.85;;
33926;SDS011;20485;50.992;5.550;2023-04-03T04:33:42;19.90;;;11.85;;
33926;SDS011;20485;50.992;5.550;2023-04-03T04:36:08;18.63;;;11.15;;
33926;SDS011;20485;50.992;5.550;2023-04-03T04:38:34;20.75;;;12.23;;
33926;SDS011;20485;50.992;5.550;2023-04-03T04:41:00;17.45;;;11.45;;
33926;SDS011;20485;50.992;5.550;2023-04-03T04:43:26;23.40;;;12.13;;
33926;SDS011;20485;50.992;5.550;2023-04-03T04:46:04;23.75;;;12.82;;
33926;SDS011;20485;50.992;5.550;2023-04-03T04:48:31;23.95;;;13.38;;
33926;SDS011;20485;50.992;5.550;2023-04-03T04:50:57;28.05;;;13.77;;
33926;SDS011;20485;50.992;5.550;2023-04-03T04:53:23;26.08;;;14.75;;
33926;SDS011;20485;50.992;5.550;2023-04-03T04:55:49;23.60;;;13.65;;
33926;SDS011;20485;50.992;5.550;2023-04-03T04:58:14;18.95;;;12.25;;
33926;SDS011;20485;50.992;5.550;2023-04-03T05:00:40;24.20;;;14.48;;
33926;SDS011;20485;50.992;5.550;2023-04-03T05:03:06;32.05;;;15.45;;
33926;SDS011;20485;50.992;5.550;2023-04-03T05:05:32;28.50;;;16.45;;
33926;SDS011;20485;50.992;5.550;2023-04-03T05:07:57;30.02;;;16.33;;
33926;SDS011;20485;50.992;5.550;2023-04-03T05:10:23;28.35;;;15.80;;
33926;SDS011;20485;50.992;5.550;2023-04-03T05:12:49;25.55;;;15.55;;
33926;SDS011;20485;50.992;5.550;2023-04-03T05:15:14;26.35;;;15.73;;
33926;SDS011;20485;50.992;5.550;2023-04-03T05:17:40;24.55;;;15.88;;
33926;SDS011;20485;50.992;5.550;2023-04-03T05:20:16;31.10;;;16.52;;
33926;SDS011;20485;50.992;5.550;2023-04-03T05:22:42;28.05;;;16.95;;
33926;SDS011;20485;50.992;5.550;2023-04-03T05:25:08;27.80;;;16.65;;
33926;SDS011;20485;50.992;5.550;2023-04-03T05:27:33;28.40;;;15.95;;
33926;SDS011;20485;50.992;5.550;2023-04-03T05:29:59;28.45;;;15.65;;
33926;SDS011;20485;50.992;5.550;2023-04-03T05:32:25;26.20;;;16.02;;
33926;SDS011;20485;50.992;5.550;2023-04-03T05:34:55;31.50;;;15.38;;
33926;SDS011;20485;50.992;5.550;2023-04-03T05:37:20;26.23;;;14.85;;
33926;SDS011;20485;50.992;5.550;2023-04-03T05:39:46;25.65;;;15.23;;
33926;SDS011;20485;50.992;5.550;2023-04-03T05:42:12;25.60;;;15.77;;
33926;SDS011;20485;50.992;5.550;2023-04-03T05:44:41;24.33;;;15.45;;
33926;SDS011;20485;50.992;5.550;2023-04-03T05:47:07;26.63;;;14.55;;
33926;SDS011;20485;50.992;5.550;2023-04-03T05:49:34;24.92;;;14.82;;
33926;SDS011;20485;50.992;5.550;2023-04-03T05:52:00;22.80;;;13.73;;
33926;SDS011;20485;50.992;5.550;2023-04-03T05:54:27;27.95;;;13.55;;
33926;SDS011;20485;50.992;5.550;2023-04-03T05:56:55;28.17;;;15.00;;
33926;SDS011;20485;50.992;5.550;2023-04-03T05:59:21;26.73;;;15.90;;
33926;SDS011;20485;50.992;5.550;2023-04-03T06:01:47;25.70;;;14.43;;
33926;SDS011;20485;50.992;5.550;2023-04-03T06:04:13;26.98;;;14.95;;
33926;SDS011;20485;50.992;5.550;2023-04-03T06:06:48;23.58;;;14.38;;
33926;SDS011;20485;50.992;5.550;2023-04-03T06:09:19;25.27;;;14.45;;
33926;SDS011;20485;50.992;5.550;2023-04-03T06:11:47;28.58;;;14.35;;
33926;SDS011;20485;50.992;5.550;2023-04-03T06:14:16;23.65;;;13.50;;
33926;SDS011;20485;50.992;5.550;2023-04-03T06:16:43;26.65;;;13.48;;
33926;SDS011;20485;50.992;5.550;2023-04-03T06:19:09;23.90;;;13.70;;
33926;SDS011;20485;50.992;5.550;2023-04-03T06:21:36;25.35;;;13.30;;
33926;SDS011;20485;50.992;5.550;2023-04-03T06:24:03;22.20;;;12.60;;
33926;SDS011;20485;50.992;5.550;2023-04-03T06:26:30;21.80;;;13.70;;
33926;SDS011;20485;50.992;5.550;2023-04-03T06:28:56;24.15;;;12.02;;
33926;SDS011;20485;50.992;5.550;2023-04-03T06:31:22;23.05;;;11.50;;
33926;SDS011;20485;50.992;5.550;2023-04-03T06:33:48;26.75;;;13.10;;
33926;SDS011;20485;50.992;5.550;2023-04-03T06:36:14;24.88;;;11.48;;
33926;SDS011;20485;50.992;5.550;2023-04-03T06:38:44;27.77;;;13.40;;
33926;SDS011;20485;50.992;5.550;2023-04-03T06:41:10;20.13;;;9.60;;
33926;SDS011;20485;50.992;5.550;2023-04-03T06:43:36;15.05;;;7.85;;
33926;SDS011;20485;50.992;5.550;2023-04-03T06:46:02;13.38;;;5.50;;
33926;SDS011;20485;50.992;5.550;2023-04-03T06:48:28;12.38;;;6.25;;
33926;SDS011;20485;50.992;5.550;2023-04-03T06:50:54;16.35;;;5.93;;
33926;SDS011;20485;50.992;5.550;2023-04-03T06:53:19;13.20;;;6.13;;
33926;SDS011;20485;50.992;5.550;2023-04-03T06:55:45;14.60;;;6.90;;
33926;SDS011;20485;50.992;5.550;2023-04-03T06:58:12;11.95;;;5.22;;
33926;SDS011;20485;50.992;5.550;2023-04-03T07:00:38;12.35;;;6.70;;
33926;SDS011;20485;50.992;5.550;2023-04-03T07:03:04;15.55;;;5.65;;
33926;SDS011;20485;50.992;5.550;2023-04-03T07:05:30;11.27;;;6.13;;
33926;SDS011;20485;50.992;5.550;2023-04-03T07:07:56;10.88;;;5.55;;
33926;SDS011;20485;50.992;5.550;2023-04-03T07:10:22;9.73;;;4.80;;
33926;SDS011;20485;50.992;5.550;2023-04-03T07:12:48;9.13;;;4.47;;
33926;SDS011;20485;50.992;5.550;2023-04-03T07:15:14;14.60;;;4.63;;
33926;SDS011;20485;50.992;5.550;2023-04-03T07:17:40;12.57;;;4.53;;
33926;SDS011;20485;50.992;5.550;2023-04-03T07:20:06;18.98;;;5.22;;
33926;SDS011;20485;50.992;5.550;2023-04-03T07:22:33;11.77;;;4.70;;
33926;SDS011;20485;50.992;5.550;2023-04-03T07:24:58;9.23;;;4.15;;
33926;SDS011;20485;50.992;5.550;2023-04-03T07:27:25;13.65;;;3.97;;
33926;SDS011;20485;50.992;5.550;2023-04-03T07:29:51;7.47;;;3.80;;
33926;SDS011;20485;50.992;5.550;2023-04-03T07:32:16;9.20;;;4.28;;
33926;SDS011;20485;50.992;5.550;2023-04-03T07:34:43;8.85;;;4.10;;
33926;SDS011;20485;50.992;5.550;2023-04-03T07:37:09;12.75;;;4.30;;
33926;SDS011;20485;50.992;5.550;2023-04-03T07:39:35;10.80;;;4.28;;
33926;SDS011;20485;50.992;5.550;2023-04-03T07:42:01;10.65;;;3.53;;
33926;SDS011;20485;50.992;5.550;2023-04-03T07:44:27;9.23;;;4.97;;
33926;SDS011;20485;50.992;5.550;2023-04-03T07:46:53;10.70;;;5.35;;
33926;SDS011;20485;50.992;5.550;2023-04-03T07:49:21;15.80;;;3.80;;
33926;SDS011;20485;50.992;5.550;2023-04-03T07:51:49;11.43;;;3.60;;
33926;SDS011;20485;50.992;5.550;2023-04-03T07:54:15;13.10;;;4.57;;
33926;SDS011;20485;50.992;5.550;2023-04-03T07:56:40;13.00;;;4.47;;
33926;SDS011;20485;50.992;5.550;2023-04-03T07:59:07;10.13;;;3.67;;
33926;SDS011;20485;50.992;5.550;2023-04-03T08:01:34;9.65;;;3.40;;
33926;SDS011;20485;50.992;5.550;2023-04-03T08:04:00;8.32;;;3.33;;
33926;SDS011;20485;50.992;5.550;2023-04-03T08:06:26;8.90;;;3.42;;
33926;SDS011;20485;50.992;5.550;2023-04-03T08:08:51;12.63;;;3.47;;
33926;SDS011;20485;50.992;5.550;2023-04-03T08:11:17;10.50;;;3.60;;
33926;SDS011;20485;50.992;5.550;2023-04-03T08:13:44;9.10;;;3.25;;
33926;SDS011;20485;50.992;5.550;2023-04-03T08:16:15;8.43;;;2.95;;
33926;SDS011;20485;50.992;5.550;2023-04-03T08:18:42;10.68;;;2.83;;
33926;SDS011;20485;50.992;5.550;2023-04-03T08:21:08;7.85;;;3.15;;
33926;SDS011;20485;50.992;5.550;2023-04-03T08:23:37;12.75;;;2.95;;
33926;SDS011;20485;50.992;5.550;2023-04-03T08:26:22;6.68;;;2.63;;
33926;SDS011;20485;50.992;5.550;2023-04-03T08:28:48;7.45;;;3.05;;
33926;SDS011;20485;50.992;5.550;2023-04-03T08:31:16;10.57;;;3.30;;
33926;SDS011;20485;50.992;5.550;2023-04-03T08:33:45;11.57;;;3.95;;
33926;SDS011;20485;50.992;5.550;2023-04-03T08:38:48;6.25;;;2.60;;
33926;SDS011;20485;50.992;5.550;2023-04-03T08:41:16;8.70;;;2.83;;
33926;SDS011;20485;50.992;5.550;2023-04-03T08:46:46;11.38;;;2.97;;
33926;SDS011;20485;50.992;5.550;2023-04-03T08:52:31;5.00;;;2.13;;
33926;SDS011;20485;50.992;5.550;2023-04-03T08:55:04;9.23;;;2.88;;
33926;SDS011;20485;50.992;5.550;2023-04-03T08:57:33;9.25;;;3.15;;
33926;SDS011;20485;50.992;5.550;2023-04-03T09:00:06;7.65;;;2.70;;
33926;SDS011;20485;50.992;5.550;2023-04-03T09:02:42;8.75;;;2.17;;
33926;SDS011;20485;50.992;5.550;2023-04-03T09:05:14;6.00;;;2.10;;
33926;SDS011;20485;50.992;5.550;2023-04-03T09:07:45;10.13;;;2.17;;
33926;SDS011;20485;50.992;5.550;2023-04-03T09:10:24;5.32;;;2.00;;
33926;SDS011;20485;50.992;5.550;2023-04-03T09:18:21;7.03;;;2.30;;
33926;SDS011;20485;50.992;5.550;2023-04-03T09:23:45;7.88;;;2.60;;
33926;SDS011;20485;50.992;5.550;2023-04-03T09:26:21;8.85;;;2.95;;
33926;SDS011;20485;50.992;5.550;2023-04-03T09:29:10;9.00;;;2.47;;
33926;SDS011;20485;50.992;5.550;2023-04-03T09:31:43;6.77;;;2.23;;
33926;SDS011;20485;50.992;5.550;2023-04-03T09:34:21;12.40;;;2.53;;
33926;SDS011;20485;50.992;5.550;2023-04-03T09:36:52;6.47;;;2.17;;
33926;SDS011;20485;50.992;5.550;2023-04-03T09:39:21;15.85;;;1.95;;
33926;SDS011;20485;50.992;5.550;2023-04-03T09:44:24;6.18;;;2.22;;
33926;SDS011;20485;50.992;5.550;2023-04-03T09:46:51;3.90;;;1.77;;
33926;SDS011;20485;50.992;5.550;2023-04-03T09:49:17;3.15;;;1.42;;
33926;SDS011;20485;50.992;5.550;2023-04-03T09:51:44;4.35;;;1.65;;
33926;SDS011;20485;50.992;5.550;2023-04-03T09:56:52;1.85;;;0.93;;
33926;SDS011;20485;50.992;5.550;2023-04-03T09:59:20;1.73;;;0.98;;
33926;SDS011;20485;50.992;5.550;2023-04-03T10:02:03;3.47;;;1.10;;
33926;SDS011;20485;50.992;5.550;2023-04-03T10:04:45;4.28;;;1.73;;
33926;SDS011;20485;50.992;5.550;2023-04-03T10:07:25;7.20;;;2.65;;
33926;SDS011;20485;50.992;5.550;2023-04-03T10:10:01;6.65;;;1.80;;
33926;SDS011;20485;50.992;5.550;2023-04-03T10:12:41;3.53;;;1.42;;
33926;SDS011;20485;50.992;5.550;2023-04-03T10:15:13;6.05;;;1.70;;
33926;SDS011;20485;50.992;5.550;2023-04-03T10:17:50;5.47;;;1.38;;
33926;SDS011;20485;50.992;5.550;2023-04-03T10:23:15;3.08;;;0.80;;
33926;SDS011;20485;50.992;5.550;2023-04-03T10:28:45;2.78;;;0.88;;
33926;SDS011;20485;50.992;5.550;2023-04-03T10:31:15;2.25;;;1.10;;
33926;SDS011;20485;50.992;5.550;2023-04-03T10:39:19;3.72;;;0.90;;
33926;SDS011;20485;50.992;5.550;2023-04-03T10:56:18;3.25;;;0.93;;
33926;SDS011;20485;50.992;5.550;2023-04-03T11:01:51;4.18;;;0.85;;
33926;SDS011;20485;50.992;5.550;2023-04-03T11:04:20;4.80;;;1.00;;
33926;SDS011;20485;50.992;5.550;2023-04-03T11:06:51;4.60;;;1.10;;
33926;SDS011;20485;50.992;5.550;2023-04-03T11:09:26;4.25;;;1.00;;
33926;SDS011;20485;50.992;5.550;2023-04-03T11:12:05;4.65;;;1.25;;
33926;SDS011;20485;50.992;5.550;2023-04-03T11:14:38;4.18;;;1.25;;
33926;SDS011;20485;50.992;5.550;2023-04-03T11:19:57;2.85;;;1.63;;
33926;SDS011;20485;50.992;5.550;2023-04-03T11:22:26;4.50;;;0.90;;
33926;SDS011;20485;50.992;5.550;2023-04-03T11:25:02;3.10;;;1.13;;
33926;SDS011;20485;50.992;5.550;2023-04-03T11:27:30;3.10;;;0.88;;
33926;SDS011;20485;50.992;5.550;2023-04-03T11:30:05;3.22;;;1.00;;
33926;SDS011;20485;50.992;5.550;2023-04-03T11:33:24;2.53;;;1.17;;
33926;SDS011;20485;50.992;5.550;2023-04-03T11:38:46;3.25;;;0.90;;
33926;SDS011;20485;50.992;5.550;2023-04-03T11:41:08;3.85;;;1.25;;
33926;SDS011;20485;50.992;5.550;2023-04-03T11:44:25;3.60;;;1.35;;
33926;SDS011;20485;50.992;5.550;2023-04-03T12:05:51;3.40;;;1.27;;
33926;SDS011;20485;50.992;5.550;2023-04-03T12:08:38;2.88;;;1.10;;
33926;SDS011;20485;50.992;5.550;2023-04-03T12:16:22;4.05;;;1.42;;
33926;SDS011;20485;50.992;5.550;2023-04-03T12:21:18;6.18;;;1.20;;
33926;SDS011;20485;50.992;5.550;2023-04-03T12:29:01;7.38;;;1.38;;
33926;SDS011;20485;50.992;5.550;2023-04-03T12:31:41;3.00;;;1.40;;
33926;SDS011;20485;50.992;5.550;2023-04-03T12:45:51;2.55;;;1.13;;
33926;SDS011;20485;50.992;5.550;2023-04-03T12:48:37;2.90;;;1.43;;
33926;SDS011;20485;50.992;5.550;2023-04-03T12:51:14;5.15;;;1.48;;
33926;SDS011;20485;50.992;5.550;2023-04-03T12:53:44;4.83;;;1.60;;
33926;SDS011;20485;50.992;5.550;2023-04-03T12:56:21;4.72;;;1.30;;
33926;SDS011;20485;50.992;5.550;2023-04-03T12:58:52;5.45;;;1.50;;
33926;SDS011;20485;50.992;5.550;2023-04-03T13:01:21;2.85;;;1.60;;
33926;SDS011;20485;50.992;5.550;2023-04-03T13:03:50;3.15;;;1.60;;
33926;SDS011;20485;50.992;5.550;2023-04-03T13:06:30;5.53;;;1.58;;
33926;SDS011;20485;50.992;5.550;2023-04-03T13:11:31;5.10;;;1.77;;
33926;SDS011;20485;50.992;5.550;2023-04-03T13:14:12;5.05;;;1.60;;
33926;SDS011;20485;50.992;5.550;2023-04-03T13:16:41;6.25;;;1.90;;
33926;SDS011;20485;50.992;5.550;2023-04-03T13:19:14;8.80;;;1.85;;
33926;SDS011;20485;50.992;5.550;2023-04-03T13:21:42;5.00;;;1.27;;
33926;SDS011;20485;50.992;5.550;2023-04-03T13:24:09;6.60;;;1.38;;
33926;SDS011;20485;50.992;5.550;2023-04-03T13:26:35;4.28;;;1.10;;
33926;SDS011;20485;50.992;5.550;2023-04-03T13:29:04;3.78;;;1.38;;
33926;SDS011;20485;50.992;5.550;2023-04-03T13:31:33;5.72;;;1.27;;
33926;SDS011;20485;50.992;5.550;2023-04-03T13:34:10;4.57;;;1.63;;
33926;SDS011;20485;50.992;5.550;2023-04-03T13:36:50;6.25;;;1.55;;
33926;SDS011;20485;50.992;5.550;2023-04-03T13:39:26;4.28;;;1.50;;
33926;SDS011;20485;50.992;5.550;2023-04-03T13:41:55;4.68;;;1.85;;
33926;SDS011;20485;50.992;5.550;2023-04-03T13:44:33;5.35;;;1.67;;
33926;SDS011;20485;50.992;5.550;2023-04-03T13:47:13;9.25;;;1.40;;
33926;SDS011;20485;50.992;5.550;2023-04-03T13:49:43;3.47;;;0.90;;
33926;SDS011;20485;50.992;5.550;2023-04-03T13:54:56;3.58;;;1.40;;
33926;SDS011;20485;50.992;5.550;2023-04-03T13:57:28;6.80;;;1.85;;
33926;SDS011;20485;50.992;5.550;2023-04-03T13:59:54;3.92;;;1.45;;
33926;SDS011;20485;50.992;5.550;2023-04-03T14:02:29;2.72;;;1.00;;
33926;SDS011;20485;50.992;5.550;2023-04-03T14:04:58;7.38;;;1.80;;
33926;SDS011;20485;50.992;5.550;2023-04-03T14:07:27;2.63;;;1.50;;
33926;SDS011;20485;50.992;5.550;2023-04-03T14:09:54;3.78;;;1.55;;
33926;SDS011;20485;50.992;5.550;2023-04-03T14:14:59;5.50;;;1.60;;
33926;SDS011;20485;50.992;5.550;2023-04-03T14:17:26;4.78;;;2.03;;
33926;SDS011;20485;50.992;5.550;2023-04-03T14:19:53;2.72;;;1.50;;
33926;SDS011;20485;50.992;5.550;2023-04-03T14:22:25;6.00;;;1.60;;
33926;SDS011;20485;50.992;5.550;2023-04-03T14:24:53;5.82;;;1.27;;
33926;SDS011;20485;50.992;5.550;2023-04-03T14:27:38;5.75;;;1.60;;
33926;SDS011;20485;50.992;5.550;2023-04-03T14:30:07;6.10;;;1.40;;
33926;SDS011;20485;50.992;5.550;2023-04-03T14:32:37;6.43;;;1.35;;
33926;SDS011;20485;50.992;5.550;2023-04-03T14:35:03;3.20;;;1.30;;
33926;SDS011;20485;50.992;5.550;2023-04-03T14:37:30;6.55;;;1.55;;
33926;SDS011;20485;50.992;5.550;2023-04-03T14:39:57;10.05;;;2.13;;
33926;SDS011;20485;50.992;5.550;2023-04-03T14:42:35;6.40;;;1.58;;
33926;SDS011;20485;50.992;5.550;2023-04-03T14:45:04;3.55;;;1.60;;
33926;SDS011;20485;50.992;5.550;2023-04-03T14:47:31;10.52;;;1.65;;
33926;SDS011;20485;50.992;5.550;2023-04-03T14:50:02;5.22;;;1.67;;
33926;SDS011;20485;50.992;5.550;2023-04-03T14:52:30;2.80;;;1.35;;
33926;SDS011;20485;50.992;5.550;2023-04-03T14:54:58;3.08;;;1.55;;
33926;SDS011;20485;50.992;5.550;2023-04-03T14:57:26;5.10;;;1.30;;
33926;SDS011;20485;50.992;5.550;2023-04-03T14:59:53;5.80;;;1.60;;
33926;SDS011;20485;50.992;5.550;2023-04-03T15:04:57;4.88;;;1.45;;
33926;SDS011;20485;50.992;5.550;2023-04-03T15:07:24;3.30;;;1.35;;
33926;SDS011;20485;50.992;5.550;2023-04-03T15:09:52;6.85;;;1.50;;
33926;SDS011;20485;50.992;5.550;2023-04-03T15:12:21;3.47;;;1.27;;
33926;SDS011;20485;50.992;5.550;2023-04-03T15:14:47;5.80;;;1.50;;
33926;SDS011;20485;50.992;5.550;2023-04-03T15:17:19;3.88;;;1.38;;
33926;SDS011;20485;50.992;5.550;2023-04-03T15:19:47;4.65;;;1.30;;
33926;SDS011;20485;50.992;5.550;2023-04-03T15:22:14;3.92;;;1.23;;
33926;SDS011;20485;50.992;5.550;2023-04-03T15:24:42;7.38;;;2.03;;
33926;SDS011;20485;50.992;5.550;2023-04-03T15:27:09;4.63;;;1.50;;
33926;SDS011;20485;50.992;5.550;2023-04-03T15:29:36;4.00;;;1.48;;
33926;SDS011;20485;50.992;5.550;2023-04-03T15:32:03;5.93;;;1.40;;
33926;SDS011;20485;50.992;5.550;2023-04-03T15:34:29;3.45;;;1.40;;
33926;SDS011;20485;50.992;5.550;2023-04-03T15:36:55;3.13;;;1.45;;
33926;SDS011;20485;50.992;5.550;2023-04-03T15:39:21;3.90;;;1.23;;
33926;SDS011;20485;50.992;5.550;2023-04-03T15:41:47;3.80;;;1.30;;
33926;SDS011;20485;50.992;5.550;2023-04-03T15:44:13;4.57;;;1.27;;
33926;SDS011;20485;50.992;5.550;2023-04-03T15:46:42;4.25;;;1.20;;
33926;SDS011;20485;50.992;5.550;2023-04-03T15:49:08;3.95;;;1.60;;
33926;SDS011;20485;50.992;5.550;2023-04-03T15:51:34;7.20;;;1.65;;
33926;SDS011;20485;50.992;5.550;2023-04-03T15:54:00;7.53;;;1.50;;
33926;SDS011;20485;50.992;5.550;2023-04-03T15:56:26;3.25;;;1.17;;
33926;SDS011;20485;50.992;5.550;2023-04-03T15:58:52;4.38;;;1.48;;
33926;SDS011;20485;50.992;5.550;2023-04-03T16:01:17;4.63;;;1.08;;
33926;SDS011;20485;50.992;5.550;2023-04-03T16:03:43;5.10;;;1.52;;
33926;SDS011;20485;50.992;5.550;2023-04-03T16:06:13;5.47;;;1.30;;
33926;SDS011;20485;50.992;5.550;2023-04-03T16:08:46;5.30;;;1.30;;
33926;SDS011;20485;50.992;5.550;2023-04-03T16:11:23;4.55;;;1.15;;
33926;SDS011;20485;50.992;5.550;2023-04-03T16:13:50;3.53;;;1.08;;
33926;SDS011;20485;50.992;5.550;2023-04-03T16:16:15;5.72;;;1.33;;
33926;SDS011;20485;50.992;5.550;2023-04-03T16:18:41;1.90;;;0.68;;
33926;SDS011;20485;50.992;5.550;2023-04-03T16:21:07;4.25;;;1.33;;
33926;SDS011;20485;50.992;5.550;2023-04-03T16:23:33;5.28;;;1.40;;
33926;SDS011;20485;50.992;5.550;2023-04-03T16:26:00;4.20;;;1.48;;
33926;SDS011;20485;50.992;5.550;2023-04-03T16:28:25;3.58;;;1.35;;
33926;SDS011;20485;50.992;5.550;2023-04-03T16:30:51;6.10;;;1.60;;
33926;SDS011;20485;50.992;5.550;2023-04-03T16:33:17;4.05;;;1.50;;
33926;SDS011;20485;50.992;5.550;2023-04-03T16:35:46;3.28;;;1.27;;
33926;SDS011;20485;50.992;5.550;2023-04-03T16:38:13;5.38;;;1.27;;
33926;SDS011;20485;50.992;5.550;2023-04-03T16:40:40;2.60;;;1.40;;
33926;SDS011;20485;50.992;5.550;2023-04-03T16:43:06;3.42;;;1.85;;